Latest Weather Observations for Bourke

IDN60801

Issued at 11:03 am EST Saturday 1 October 2016 (issued every 30 minutes, with the page automatically refreshed every 10 minutes)

About weather observations | Map of weather stations | Latest weather observations for NSW | Other Formats
Station Details ID: 048245 Name: BOURKE AIRPORT AWS Lat: -30.04 Lon: 145.95 Height: 107.3 m
Data from the previous 72 hours. | See also: Recent months at Bourke
Date/Time
EST
Temp
°C
App
Temp
°C
Dew
Point
°C
Rel
Hum
%
Delta-T
°C
Wind Press
QNH
hPa
Press
MSL
hPa
Rain since
9am
mm
Dir  Spd
km/h
Gust
km/h
Spd
kts
Gust
kts
01/10:30am 19.3 14.2 4.3 37 7.2 W 20 30 11 16 1014.1 1013.7 0.0
01/10:00am 18.9 13.5 4.7 39 6.9 W 22 35 12 19 1014.0 1013.6 0.0
01/09:30am 18.1 13.8 5.3 43 6.2 W 17 30 9 16 1014.1 1013.9 0.0
01/09:00am 17.5 13.0 6.1 47 5.6 W 19 26 10 14 1014.1 1013.9 0.0
01/08:30am 16.8 13.6 6.9 52 4.9 W 13 20 7 11 1014.1 1013.9 0.0
01/08:00am 14.9 11.7 7.0 59 3.9 WNW 13 19 7 10 1013.7 1013.5 0.0
01/07:30am 13.5 10.4 7.3 66 3.0 WNW 13 19 7 10 1013.3 1013.1 0.0
01/07:00am 12.1 9.3 6.8 70 2.5 NW 11 15 6 8 1012.9 1012.7 0.0
01/06:30am 10.3 7.7 6.3 76 1.9 NW 9 15 5 8 1012.6 1012.4 0.0
01/06:00am 9.7 6.7 5.9 77 1.8 NW 11 15 6 8 1012.2 1012.0 0.0
01/05:30am 10.0 7.0 6.0 76 1.9 NW 11 17 6 9 1011.5 1011.3 0.0
01/05:00am 10.0 7.0 6.0 76 1.9 NW 11 13 6 7 1010.9 1010.7 0.0
01/04:30am 10.7 7.7 6.1 73 2.2 NW 11 15 6 8 1010.5 1010.2 0.0
01/04:00am 11.9 8.9 6.2 68 2.7 NW 11 15 6 8 1010.1 1009.8 0.0
01/03:30am 13.0 9.7 6.4 64 3.2 NW 13 17 7 9 1009.8 1009.5 0.0
01/03:00am 13.7 10.4 6.6 62 3.4 NW 13 19 7 10 1009.8 1009.5 0.0
01/02:30am 13.8 10.6 6.7 62 3.4 NW 13 17 7 9 1009.7 1009.4 0.0
01/02:00am 13.9 10.6 6.5 61 3.6 NW 13 19 7 10 1009.7 1009.4 0.0
01/01:30am 13.9 10.6 6.5 61 3.6 NW 13 20 7 11 1009.6 1009.3 0.0
01/01:00am 13.9 10.2 6.3 60 3.7 NW 15 22 8 12 1009.6 1009.3 0.0
01/12:30am 13.7 9.6 6.3 61 3.6 NW 17 22 9 12 1009.3 1009.1 0.0
01/12:00am 13.4 9.7 6.3 62 3.4 NW 15 20 8 11 1009.8 1009.5 0.0
 
Date/Time
EST
Temp
°C
App
Temp
°C
Dew
Point
°C
Rel
Hum
%
Delta-T
°C
Wind Press
QNH
hPa
Press
MSL
hPa
Rain since
9am
mm
Dir  Spd
km/h
Gust
km/h
Spd
kts
Gust
kts
30/11:30pm 12.7 9.0 6.1 64 3.1 NW 15 20 8 11 1009.8 1009.5 0.0
30/11:00pm 12.7 8.9 5.8 63 3.3 NW 15 20 8 11 1009.9 1009.6 0.0
30/10:30pm 12.8 9.4 5.9 63 3.3 NW 13 17 7 9 1009.8 1009.5 0.0
30/10:00pm 12.4 9.4 6.0 65 3.0 NNW 11 15 6 8 1009.7 1009.4 0.0
30/09:30pm 13.1 9.6 5.5 60 3.6 NNW 13 17 7 9 1009.7 1009.4 0.0
30/09:00pm 13.4 9.6 5.8 60 3.6 NNW 15 19 8 10 1009.4 1009.2 0.0
30/08:30pm 13.9 10.0 5.5 57 4.0 NW 15 19 8 10 1009.2 1009.0 0.0
30/08:00pm 14.3 10.4 5.4 55 4.2 NW 15 20 8 11 1008.9 1008.7 0.0
30/07:30pm 14.2 11.0 5.3 55 4.2 NW 11 17 6 9 1008.7 1008.5 0.0
30/07:00pm 15.2 11.2 4.9 50 4.9 NW 15 20 8 11 1008.3 1008.1 0.0
30/06:30pm 16.1 11.7 4.5 46 5.5 NW 17 22 9 12 1008.0 1007.8 0.0
30/06:00pm 17.0 12.6 4.7 44 5.9 WNW 17 22 9 12 1007.7 1007.5 0.0
30/05:30pm 17.8 12.2 3.7 39 6.6 WNW 22 39 12 21 1007.5 1007.3 0.0
30/05:00pm 18.5 12.9 3.6 37 7.0 WNW 22 35 12 19 1007.2 1007.0 0.0
30/04:30pm 19.0 12.7 4.0 37 7.2 WNW 26 37 14 20 1006.7 1006.5 0.0
30/04:00pm 18.8 12.9 3.8 37 7.1 W 24 37 13 20 1006.5 1006.3 0.0
30/03:30pm 17.8 11.1 3.7 39 6.6 WNW 28 44 15 24 1006.5 1006.3 0.0
30/03:19pm 18.2 11.4 2.9 36 7.1 WNW 28 46 15 25 1006.4 1006.2 0.0
30/03:00pm 17.5 11.5 3.4 39 6.6 W 24 44 13 24 1006.5 1006.3 0.0
30/02:53pm 17.7 11.0 3.6 39 6.6 WNW 28 46 15 25 1006.5 1006.3 0.0
30/02:30pm 18.4 12.6 4.6 40 6.6 WNW 24 41 13 22 1006.5 1006.3 0.0
30/02:09pm 17.7 10.9 3.2 38 6.7 WNW 28 46 15 25 1006.7 1006.5 0.0
30/02:00pm 17.9 11.4 4.5 41 6.4 WNW 28 39 15 21 1006.7 1006.5 0.0
30/01:30pm 17.7 11.0 3.6 39 6.6 WNW 28 48 15 26 1006.8 1006.6 0.0
30/01:22pm 17.1 10.4 3.4 40 6.4 WNW 28 48 15 26 1006.8 1006.6 0.0
30/01:00pm 16.6 9.5 3.7 42 6.0 WNW 30 43 16 23 1006.7 1006.5 0.0
30/12:30pm 17.1 10.0 3.8 41 6.2 WNW 30 50 16 27 1006.7 1006.5 0.0
30/12:18pm 15.9 8.4 3.4 43 5.8 WNW 32 50 17 27 1006.7 1006.5 0.0
30/12:00pm 16.1 8.6 3.2 42 5.9 WNW 32 46 17 25 1006.7 1006.5 0.0
30/11:34am 15.9 8.6 2.7 41 6.0 WNW 30 50 16 27 1006.6 1006.4 0.0
30/11:30am 16.3 8.7 3.0 41 6.1 WNW 32 43 17 23 1006.6 1006.4 0.0
30/11:16am 16.1 8.6 3.2 42 5.9 WNW 32 50 17 27 1006.4 1006.2 0.0
30/11:00am 15.9 9.2 3.4 43 5.8 WNW 28 43 15 23 1006.4 1006.2 0.0
30/10:55am 16.3 9.7 4.4 45 5.6 WNW 28 46 15 25 1006.4 1006.2 0.0
30/10:30am 15.1 8.4 3.6 46 5.3 NW 28 41 15 22 1006.4 1006.2 0.0
30/10:15am 14.9 7.3 2.8 44 5.5 WNW 32 52 17 28 1006.3 1006.1 0.0
30/10:00am 15.1 7.6 3.6 46 5.3 NW 32 48 17 26 1006.4 1006.2 0.0
30/09:38am 14.4 7.0 3.8 49 4.9 WNW 32 50 17 27 1006.4 1006.2 0.0
30/09:30am 13.9 5.8 3.1 48 4.9 NW 35 50 19 27 1006.2 1006.0 0.0
30/09:04am 13.9 6.8 3.7 50 4.6 WNW 30 48 16 26 1006.2 1006.0 0.0
30/09:00am 13.5 6.0 3.6 51 4.5 WNW 32 48 17 26 1006.2 1006.0 0.2
30/08:35am 13.2 5.9 2.7 49 4.7 WNW 30 48 16 26 1006.0 1005.8 0.2
30/08:30am 13.2 5.6 3.0 50 4.5 WNW 32 46 17 25 1006.0 1005.8 0.2
30/08:11am 12.9 5.6 2.7 50 4.5 WNW 30 48 16 26 1005.7 1005.5 0.2
30/08:00am 12.9 5.3 3.0 51 4.4 NW 32 46 17 25 1005.5 1005.3 0.2
30/07:30am 12.3 5.0 2.7 52 4.2 NW 30 43 16 23 1005.0 1004.8 0.2
30/07:16am 12.0 5.1 2.7 53 4.1 WNW 28 46 15 25 1004.9 1004.7 0.2
30/07:00am 11.6 5.1 2.6 54 3.9 NW 26 39 14 21 1004.8 1004.6 0.2
30/06:30am 10.9 5.1 2.5 56 3.6 NW 22 35 12 19 1004.2 1004.0 0.2
30/06:00am 10.7 4.9 2.3 56 3.6 NW 22 33 12 18 1004.0 1003.8 0.2
30/05:30am 11.0 5.5 2.1 54 3.8 NW 20 32 11 17 1003.5 1003.3 0.2
30/05:00am 11.3 5.5 2.1 53 4.0 NW 22 33 12 18 1003.3 1003.1 0.2
30/04:30am 11.6 6.1 2.1 52 4.1 NW 20 32 11 17 1003.1 1002.9 0.2
30/04:00am 11.7 5.9 2.2 52 4.1 NW 22 33 12 18 1003.0 1002.8 0.2
30/03:30am 12.0 6.5 1.9 50 4.3 NW 20 32 11 17 1003.1 1002.9 0.2
30/03:00am 12.5 6.3 2.1 49 4.5 NW 24 37 13 20 1003.1 1002.9 0.2
30/02:30am 11.8 5.9 2.0 51 4.2 NW 22 32 12 17 1003.3 1003.1 0.2
30/02:00am 11.7 6.2 1.9 51 4.2 NW 20 30 11 16 1003.6 1003.4 0.2
30/01:30am 11.6 6.1 2.1 52 4.1 NW 20 30 11 16 1003.9 1003.7 0.2
30/01:00am 11.8 6.4 2.3 52 4.1 NW 20 30 11 16 1004.2 1004.0 0.2
30/12:30am 12.2 6.0 2.1 50 4.4 NW 24 33 13 18 1004.4 1004.2 0.2
30/12:00am 12.4 6.5 2.0 49 4.5 NW 22 37 12 20 1004.4 1004.2 0.2
 
Date/Time
EST
Temp
°C
App
Temp
°C
Dew
Point
°C
Rel
Hum
%
Delta-T
°C
Wind Press
QNH
hPa
Press
MSL
hPa
Rain since
9am
mm
Dir  Spd
km/h
Gust
km/h
Spd
kts
Gust
kts
29/11:30pm 12.7 6.1 2.0 48 4.6 NW 26 41 14 22 1004.6 1004.4 0.2
29/11:00pm 12.9 6.7 2.2 48 4.7 NW 24 35 13 19 1004.8 1004.6 0.2
29/10:30pm 13.0 6.8 2.0 47 4.8 NW 24 39 13 21 1005.0 1004.8 0.2
29/10:00pm 12.8 7.4 2.4 49 4.6 NW 20 30 11 16 1005.2 1005.0 0.2
29/09:30pm 13.4 7.2 2.0 46 5.0 NW 24 39 13 21 1005.3 1005.1 0.2
29/09:00pm 13.5 7.7 2.1 46 5.0 NW 22 33 12 18 1005.1 1004.9 0.2
29/08:30pm 13.8 8.0 2.4 46 5.0 NW 22 35 12 19 1005.1 1004.9 0.2
29/08:00pm 14.2 8.4 2.1 44 5.4 NW 22 35 12 19 1004.8 1004.6 0.2
29/07:30pm 14.3 8.5 2.2 44 5.4 NW 22 32 12 17 1004.4 1004.2 0.2
29/07:00pm 14.3 8.4 1.6 42 5.6 NW 22 33 12 18 1004.1 1003.9 0.2
29/06:30pm 14.7 7.9 0.9 39 6.0 NW 26 39 14 21 1003.6 1003.4 0.2
29/06:00pm 15.3 7.6 -0.1 35 6.6 WNW 30 46 16 25 1003.4 1003.2 0.2
29/05:32pm 16.2 7.4 -0.9 31 7.2 WNW 35 54 19 29 1003.0 1002.8 0.2
29/05:30pm 16.1 6.9 -1.5 30 7.3 WNW 37 54 20 29 1003.0 1002.8 0.2
29/05:04pm 16.8 9.1 -0.4 31 7.4 WNW 30 52 16 28 1002.5 1002.2 0.2
29/05:00pm 17.1 9.0 -0.1 31 7.5 WNW 32 46 17 25 1002.6 1002.4 0.2
29/04:30pm 17.3 9.1 -0.9 29 7.7 NW 32 52 17 28 1002.2 1001.9 0.2
29/04:03pm 17.5 9.2 -0.2 30 7.7 NW 33 52 18 28 1001.9 1001.6 0.2
29/04:00pm 16.9 8.2 -0.3 31 7.4 NW 35 52 19 28 1002.0 1001.7 0.2
29/03:30pm 17.8 9.2 0.0 30 7.8 WNW 35 57 19 31 1001.7 1001.4 0.2
29/03:00pm 17.6 9.6 0.3 31 7.6 NW 32 50 17 27 1001.5 1001.2 0.2
29/02:30pm 18.1 9.7 1.6 33 7.4 WNW 35 61 19 33 1001.8 1001.5 0.2
29/02:00pm 18.5 10.6 1.1 31 7.8 WNW 32 52 17 28 1001.9 1001.6 0.2
29/01:30pm 18.2 9.9 2.1 34 7.3 NW 35 57 19 31 1002.1 1001.8 0.2
29/01:00pm 18.2 10.0 2.9 36 7.1 WNW 35 54 19 29 1002.3 1002.0 0.2
29/12:30pm 17.4 9.8 0.6 32 7.4 WNW 30 52 16 28 1002.3 1002.0 0.2
29/12:25pm 17.5 10.0 1.5 34 7.2 NW 30 48 16 26 1002.4 1002.1 0.2
29/12:00pm 17.4 9.9 1.0 33 7.3 WNW 30 46 16 25 1002.6 1002.4 0.2
29/11:40am 17.5 9.7 1.5 34 7.2 NW 32 50 17 27 1002.6 1002.4 0.2
29/11:30am 17.0 8.8 0.2 32 7.3 NW 33 50 18 27 1002.6 1002.4 0.2
29/11:05am 17.5 10.3 0.6 32 7.4 NW 28 46 15 25 1002.5 1002.2 0.0
29/11:00am 17.3 9.4 0.9 33 7.3 NW 32 46 17 25 1002.6 1002.4 0.0
29/10:33am 17.3 10.8 4.6 43 6.1 WNW 28 46 15 25 1002.7 1002.5 0.0
29/10:30am 17.6 10.6 4.2 41 6.4 NW 30 46 16 25 1002.8 1002.6 0.0
29/10:00am 17.0 10.0 5.9 48 5.5 WNW 32 48 17 26 1002.7 1002.5 0.0
29/09:43am 16.9 10.7 6.1 49 5.3 WNW 28 50 15 27 1002.7 1002.5 0.0
29/09:30am 16.7 10.8 7.4 54 4.7 WNW 28 43 15 23 1002.8 1002.6 0.0
29/09:00am 16.1 11.2 8.3 60 4.0 NW 24 41 13 22 1002.7 1002.5 9.6
29/08:30am 15.4 11.8 9.7 69 3.0 WNW 19 32 10 17 1002.7 1002.5 9.6
29/08:00am 13.8 11.8 11.5 86 1.2 WNW 13 19 7 10 1002.9 1002.7 9.6
29/07:30am 13.2 11.0 10.7 85 1.3 NW 13 20 7 11 1002.5 1002.2 9.6
29/07:00am 12.6 10.3 10.5 87 1.1 WNW 13 17 7 9 1002.6 1002.4 9.6
29/06:30am 12.3 10.0 10.4 88 1.0 W 13 20 7 11 1002.1 1001.8 9.6
29/06:00am 12.2 9.5 10.3 88 1.0 WSW 15 26 8 14 1001.8 1001.5 9.6
29/05:30am 11.7 6.4 9.9 89 0.9 WSW 28 39 15 21 1001.3 1001.0 9.6
29/05:24am 11.6 5.5 9.7 88 1.0 WSW 32 50 17 27 1001.1 1000.8 9.4
29/05:16am 13.0 7.5 9.1 77 2.0 WNW 28 50 15 27 1000.9 1000.6 8.4
29/05:00am 15.9 12.9 14.8 93 0.6 NW 24 35 13 19 999.5 999.3 7.8
29/04:30am 16.1 14.1 15.0 93 0.6 NW 19 30 10 16 999.3 999.1 5.4
29/04:00am 16.3 14.9 14.5 89 1.0 NW 15 20 8 11 999.0 998.8 2.4
29/03:30am 17.0 15.0 13.9 82 1.8 NNW 17 24 9 13 998.7 998.5 1.6
29/03:00am 16.6 13.6 13.7 83 1.7 N 22 30 12 16 998.9 998.7 1.6
29/02:30am 17.2 15.0 13.3 78 2.2 N 17 24 9 13 999.1 998.9 1.2
29/02:00am 16.8 14.0 13.3 80 2.0 N 20 28 11 15 999.2 999.0 1.2
29/01:30am 16.6 13.1 13.3 81 1.9 N 24 33 13 18 1000.1 999.8 1.2
29/01:00am 18.6 14.5 12.6 68 3.4 N 26 35 14 19 1001.0 1000.7 1.0
29/12:42am 18.5 14.0 12.7 69 3.3 N 28 46 15 25 1001.5 1001.2 1.0
29/12:30am 18.6 13.8 12.8 69 3.3 N 30 39 16 21 1001.8 1001.5 1.0
29/12:00am 17.7 13.2 12.6 72 2.9 N 28 35 15 19 1002.3 1002.0 1.0
 
Date/Time
EST
Temp
°C
App
Temp
°C
Dew
Point
°C
Rel
Hum
%
Delta-T
°C
Wind Press
QNH
hPa
Press
MSL
hPa
Rain since
9am
mm
Dir  Spd
km/h
Gust
km/h
Spd
kts
Gust
kts
28/11:39pm 18.2 12.2 10.8 62 4.0 N 33 52 18 28 1002.9 1002.7 0.6
28/11:30pm 21.0 13.8 9.3 47 6.3 N 37 52 20 28 1002.8 1002.6 0.0
28/11:09pm 21.3 14.0 8.9 45 6.6 N 37 56 20 30 1003.3 1003.1 0.0
28/11:00pm 21.7 14.0 8.6 43 7.0 N 39 52 21 28 1003.2 1003.0 0.0
28/10:38pm 22.0 14.6 8.2 41 7.3 N 37 56 20 30 1003.4 1003.2 0.0
28/10:30pm 22.0 15.2 7.8 40 7.4 N 33 48 18 26 1003.4 1003.2 0.0
28/10:08pm 22.0 16.2 7.8 40 7.4 N 28 46 15 25 1004.0 1003.8 0.0
28/10:00pm 21.8 16.3 7.6 40 7.4 N 26 35 14 19 1004.1 1003.9 0.0
28/09:30pm 22.0 16.2 7.8 40 7.4 N 28 44 15 24 1004.4 1004.2 0.0
28/09:01pm 22.5 16.4 6.7 36 8.1 NNW 28 46 15 25 1004.9 1004.7 0.0
28/09:00pm 22.5 16.0 6.7 36 8.2 NNW 30 46 16 25 1004.9 1004.7 0.0
28/08:41pm 23.6 17.3 5.5 31 9.2 NNW 28 48 15 26 1004.9 1004.7 0.0
28/08:30pm 22.8 18.6 5.7 33 8.7 N 17 26 9 14 1004.9 1004.7 0.0
28/08:00pm 22.3 18.2 6.1 35 8.3 NNE 17 20 9 11 1004.8 1004.6 0.0
28/07:30pm 22.3 18.3 6.5 36 8.1 NNE 17 20 9 11 1004.8 1004.6 0.0
28/07:00pm 22.5 18.5 6.7 36 8.2 NNE 17 20 9 11 1005.2 1005.0 0.0
28/06:30pm 23.0 18.6 6.7 35 8.4 NNE 19 26 10 14 1005.5 1005.3 0.0
28/06:00pm 24.0 18.7 6.7 33 9.0 NNE 24 32 13 17 1006.0 1005.8 0.0
28/05:30pm 24.4 19.1 6.6 32 9.3 N 24 33 13 18 1005.9 1005.7 0.0
28/05:00pm 25.6 20.7 6.8 30 9.9 N 22 32 12 17 1005.9 1005.7 0.0
28/04:30pm 25.4 20.2 7.1 31 9.7 NNE 24 35 13 19 1005.8 1005.6 0.0
28/04:00pm 25.9 20.4 6.0 28 10.4 NNE 24 37 13 20 1005.8 1005.6 0.0
28/03:30pm 26.1 21.5 6.7 29 10.2 NNE 20 30 11 16 1006.4 1006.2 0.0
28/03:00pm 25.8 21.1 5.9 28 10.3 NNE 20 28 11 15 1007.1 1006.9 0.0
28/02:30pm 25.5 20.9 6.7 30 9.9 NE 20 28 11 15 1007.6 1007.4 0.0
28/02:00pm 25.3 20.2 6.0 29 10.0 NE 22 35 12 19 1007.9 1007.7 0.0
28/01:30pm 25.2 19.4 6.4 30 9.8 ENE 26 35 14 19 1008.7 1008.5 0.0
28/01:00pm 24.1 19.2 5.0 29 9.6 ENE 20 30 11 16 1009.7 1009.4 0.0
28/12:30pm 23.6 18.7 5.0 30 9.3 NE 20 32 11 17 1010.7 1010.5 0.0
28/12:00pm 23.2 18.2 4.7 30 9.2 ENE 20 30 11 16 1011.2 1011.0 0.0
28/11:30am 22.8 18.6 5.7 33 8.7 NE 17 30 9 16 1012.2 1012.0 0.0

Other Formats:

Comma delimited format used in spreadsheet applications
http://www.bom.gov.au/fwo/IDN60801/IDN60801.94703.axf

JavaScript Object Notation format (JSON) in row-major order
http://www.bom.gov.au/fwo/IDN60801/IDN60801.94703.json